createdAt,value
2023-03-26T00:00:51.856Z,3.38
2023-03-26T00:03:18.303Z,3.47
2023-03-26T00:05:45.933Z,3.45
2023-03-26T00:08:12.384Z,3.40
2023-03-26T00:10:40.451Z,3.83
2023-03-26T00:13:08.247Z,3.80
2023-03-26T00:15:36.556Z,3.15
2023-03-26T00:18:03.287Z,3.80
2023-03-26T00:20:30.956Z,3.88
2023-03-26T00:22:57.285Z,3.38
2023-03-26T00:25:23.779Z,4.10
2023-03-26T00:27:50.585Z,3.80
2023-03-26T00:30:17.103Z,3.78
2023-03-26T00:32:43.913Z,3.47
2023-03-26T00:35:20.322Z,4.40
2023-03-26T00:37:46.738Z,3.83
2023-03-26T00:40:13.414Z,3.83
2023-03-26T00:42:39.750Z,4.30
2023-03-26T00:45:07.176Z,4.07
2023-03-26T00:47:34.515Z,3.95
2023-03-26T00:50:00.913Z,3.92
2023-03-26T00:52:27.309Z,4.70
2023-03-26T00:54:54.732Z,4.65
2023-03-26T00:57:32.984Z,4.35
2023-03-26T01:00:01.815Z,4.15
2023-03-26T01:02:28.231Z,4.38
2023-03-26T01:04:58.118Z,4.90
2023-03-26T01:07:26.607Z,5.03
2023-03-26T01:09:53.909Z,4.50
2023-03-26T01:12:23.059Z,4.75
2023-03-26T01:14:52.089Z,5.28
2023-03-26T01:17:18.612Z,4.63
2023-03-26T01:20:09.693Z,4.40
2023-03-26T01:22:36.785Z,5.45
2023-03-26T01:25:03.742Z,5.85
2023-03-26T01:27:36.987Z,5.30
2023-03-26T01:30:23.665Z,5.88
2023-03-26T01:33:22.345Z,5.38
2023-03-26T01:36:10.082Z,6.05
2023-03-26T01:38:45.209Z,6.32
2023-03-26T01:41:23.311Z,7.45
2023-03-26T01:44:15.955Z,7.47
2023-03-26T01:46:43.401Z,7.28
2023-03-26T01:49:09.806Z,7.95
2023-03-26T01:51:36.220Z,7.90
2023-03-26T01:54:06.051Z,8.18
2023-03-26T01:56:59.553Z,8.27
2023-03-26T01:59:52.571Z,7.95
2023-03-26T02:02:26.564Z,7.90
2023-03-26T02:05:12.144Z,8.43
2023-03-26T02:07:41.444Z,8.18
2023-03-26T02:10:15.641Z,8.10
2023-03-26T02:12:44.145Z,8.27
2023-03-26T02:15:11.954Z,8.13
2023-03-26T02:17:38.801Z,8.68
2023-03-26T02:20:09.437Z,8.05
2023-03-26T02:22:39.610Z,8.40
2023-03-26T02:25:08.454Z,8.55
2023-03-26T02:27:35.673Z,8.30
2023-03-26T02:30:02.592Z,8.60
2023-03-26T02:32:29.363Z,8.20
2023-03-26T02:34:55.874Z,8.88
2023-03-26T02:37:22.210Z,8.48
2023-03-26T02:39:48.537Z,8.15
2023-03-26T02:42:14.894Z,8.13
2023-03-26T02:44:41.239Z,8.68
2023-03-26T02:47:07.758Z,8.23
2023-03-26T02:49:34.136Z,8.20
2023-03-26T02:52:01.009Z,7.80
2023-03-26T02:54:27.319Z,8.50
2023-03-26T02:56:53.698Z,7.45
2023-03-26T02:59:20.023Z,7.88
2023-03-26T03:01:46.344Z,7.13
2023-03-26T03:04:13.157Z,8.38
2023-03-26T03:06:40.657Z,8.40
2023-03-26T03:09:08.146Z,7.40
2023-03-26T03:11:35.044Z,7.30
2023-03-26T03:14:01.403Z,7.90
2023-03-26T03:16:27.826Z,7.88
2023-03-26T03:18:54.901Z,7.53
2023-03-26T03:21:25.398Z,9.40
2023-03-26T03:23:51.822Z,8.52
2023-03-26T03:26:21.054Z,9.10
2023-03-26T03:28:49.060Z,9.40
2023-03-26T03:31:17.009Z,10.57
2023-03-26T03:33:44.324Z,9.55
2023-03-26T03:36:20.491Z,9.23
2023-03-26T03:38:48.634Z,10.50
2023-03-26T03:41:15.209Z,9.57
2023-03-26T03:43:41.514Z,9.75
2023-03-26T03:46:07.874Z,9.93
2023-03-26T03:48:34.223Z,10.57
2023-03-26T03:51:00.527Z,9.90
2023-03-26T03:53:26.867Z,11.05
2023-03-26T03:55:54.631Z,11.95
2023-03-26T03:58:26.249Z,11.70
2023-03-26T04:00:52.847Z,11.73
2023-03-26T04:03:20.009Z,11.07
2023-03-26T04:06:00.242Z,11.90
2023-03-26T04:08:26.553Z,11.90
2023-03-26T04:10:52.898Z,12.05
2023-03-26T04:13:19.220Z,12.18
2023-03-26T04:15:45.579Z,11.32
2023-03-26T04:18:11.916Z,12.27
2023-03-26T04:20:40.519Z,13.57
2023-03-26T04:23:06.878Z,12.07
2023-03-26T04:25:34.122Z,12.52
2023-03-26T04:28:06.625Z,11.85
2023-03-26T04:30:34.625Z,12.20
2023-03-26T04:33:04.092Z,12.13
2023-03-26T04:35:33.972Z,12.45
2023-03-26T04:38:04.425Z,11.73
2023-03-26T04:40:30.808Z,12.48
2023-03-26T04:42:57.141Z,12.05
2023-03-26T04:45:23.867Z,11.95
2023-03-26T04:47:50.855Z,12.45
2023-03-26T04:50:17.570Z,11.27
2023-03-26T04:52:45.333Z,12.63
2023-03-26T04:55:21.478Z,11.07
2023-03-26T04:57:53.424Z,11.52
2023-03-26T05:00:19.925Z,12.90
2023-03-26T05:02:46.522Z,12.43
2023-03-26T05:05:12.836Z,13.45
2023-03-26T05:07:39.137Z,11.75
2023-03-26T05:10:06.013Z,12.52
2023-03-26T05:12:32.345Z,12.52
2023-03-26T05:14:58.710Z,13.05
2023-03-26T05:17:25.978Z,13.15
2023-03-26T05:19:52.408Z,13.88
2023-03-26T05:22:19.317Z,12.07
2023-03-26T05:24:45.676Z,13.15
2023-03-26T05:27:15.910Z,13.55
2023-03-26T05:29:42.815Z,12.55
2023-03-26T05:32:10.053Z,14.00
2023-03-26T05:34:36.394Z,15.32
2023-03-26T05:37:04.082Z,12.75
2023-03-26T05:39:30.375Z,13.95
2023-03-26T05:41:56.688Z,14.25
2023-03-26T05:44:22.991Z,13.75
2023-03-26T05:46:49.315Z,15.98
2023-03-26T05:49:15.629Z,15.90
2023-03-26T05:51:41.983Z,16.75
2023-03-26T05:54:08.289Z,16.70
2023-03-26T05:56:34.701Z,18.83
2023-03-26T05:59:01.135Z,21.65
2023-03-26T06:01:27.470Z,19.83
2023-03-26T06:03:53.902Z,20.52
2023-03-26T06:06:20.926Z,21.85
2023-03-26T06:09:02.594Z,21.58
2023-03-26T06:11:30.454Z,22.15
2023-03-26T06:13:56.853Z,22.92
2023-03-26T06:16:27.161Z,23.77
2023-03-26T06:18:57.384Z,23.15
2023-03-26T06:21:25.614Z,23.23
2023-03-26T06:23:52.742Z,24.30
2023-03-26T06:26:19.312Z,25.90
2023-03-26T06:28:45.618Z,24.42
2023-03-26T06:31:12.048Z,26.52
2023-03-26T06:33:38.529Z,26.50
2023-03-26T06:36:05.489Z,28.02
2023-03-26T06:38:31.936Z,28.10
2023-03-26T06:41:05.711Z,28.83
2023-03-26T06:43:32.162Z,30.52
2023-03-26T06:45:58.508Z,29.25
2023-03-26T06:48:24.818Z,28.58
2023-03-26T06:50:51.392Z,29.08
2023-03-26T06:53:18.020Z,27.17
2023-03-26T06:55:44.485Z,28.42
2023-03-26T06:58:12.127Z,28.30
2023-03-26T07:00:38.901Z,28.35
2023-03-26T07:03:06.008Z,27.30
2023-03-26T07:05:32.376Z,27.85
2023-03-26T07:07:58.707Z,25.60
2023-03-26T07:10:25.350Z,26.38
2023-03-26T07:12:53.230Z,25.58
2023-03-26T07:15:20.046Z,24.10
2023-03-26T07:17:46.766Z,23.20
2023-03-26T07:20:13.181Z,22.65
2023-03-26T07:22:39.920Z,22.35
2023-03-26T07:25:07.141Z,21.00
2023-03-26T07:27:40.838Z,22.05
2023-03-26T07:30:20.156Z,22.63
2023-03-26T07:33:06.149Z,20.58
2023-03-26T07:35:41.376Z,20.90
2023-03-26T07:38:37.072Z,20.17
2023-03-26T07:44:03.100Z,18.90
2023-03-26T07:46:31.672Z,21.33
2023-03-26T07:48:58.689Z,19.65
2023-03-26T07:51:25.806Z,19.77
2023-03-26T07:53:52.568Z,18.48
2023-03-26T07:56:37.713Z,19.20
2023-03-26T08:02:32.327Z,17.52
2023-03-26T08:05:20.131Z,17.63
2023-03-26T08:08:00.855Z,19.45
2023-03-26T08:10:37.112Z,18.05
2023-03-26T08:13:26.579Z,17.13
2023-03-26T08:16:14.038Z,16.73
2023-03-26T08:18:59.310Z,17.08
2023-03-26T08:24:13.501Z,16.17
2023-03-26T08:26:55.844Z,14.25
2023-03-26T08:29:29.512Z,14.88
2023-03-26T08:31:56.303Z,14.63
2023-03-26T08:34:23.065Z,15.25
2023-03-26T08:36:49.394Z,13.90
2023-03-26T08:39:15.702Z,13.45
2023-03-26T08:42:09.735Z,12.90
2023-03-26T08:45:25.393Z,13.60
2023-03-26T08:48:19.432Z,16.27
2023-03-26T08:51:17.542Z,18.50
2023-03-26T08:53:56.619Z,15.57
2023-03-26T08:56:31.800Z,15.48
2023-03-26T08:59:25.262Z,14.23
2023-03-26T09:02:25.752Z,15.32
2023-03-26T09:05:12.024Z,16.48
2023-03-26T09:08:00.154Z,17.08
2023-03-26T09:10:38.779Z,14.82
2023-03-26T09:13:35.787Z,15.45
2023-03-26T09:16:43.147Z,10.80
2023-03-26T09:19:34.108Z,8.75
2023-03-26T09:22:12.222Z,10.57
2023-03-26T09:24:38.476Z,9.23
2023-03-26T09:27:18.790Z,8.75
2023-03-26T09:30:20.888Z,7.95
2023-03-26T09:33:11.650Z,8.77
2023-03-26T09:36:05.768Z,9.48
2023-03-26T09:38:53.607Z,9.57
2023-03-26T09:41:35.336Z,11.90
2023-03-26T09:44:35.993Z,9.20
2023-03-26T09:47:36.654Z,8.93
2023-03-26T09:50:42.785Z,9.00
2023-03-26T09:53:23.635Z,8.02
2023-03-26T09:56:08.840Z,8.32
2023-03-26T10:01:24.730Z,8.07
2023-03-26T10:04:06.381Z,7.97
2023-03-26T10:06:41.782Z,9.02
2023-03-26T10:09:19.614Z,8.80
2023-03-26T10:12:02.433Z,8.90
2023-03-26T10:14:41.134Z,12.07
2023-03-26T10:17:31.904Z,9.95
2023-03-26T10:20:04.092Z,8.45
2023-03-26T10:22:39.255Z,10.55
2023-03-26T10:25:23.552Z,9.50
2023-03-26T10:28:27.061Z,10.20
2023-03-26T10:31:17.350Z,9.88
2023-03-26T10:34:05.003Z,8.90
2023-03-26T10:36:35.596Z,8.48
2023-03-26T10:39:07.761Z,9.32
2023-03-26T10:41:55.932Z,8.95
2023-03-26T10:44:43.897Z,11.18
2023-03-26T10:47:25.362Z,9.82
2023-03-26T10:49:59.568Z,9.55
2023-03-26T10:52:34.786Z,9.55
2023-03-26T10:55:18.281Z,8.57
2023-03-26T10:57:50.657Z,8.00
2023-03-26T11:00:21.485Z,7.60
2023-03-26T11:03:25.292Z,8.90
2023-03-26T11:06:30.389Z,10.20
2023-03-26T11:09:10.777Z,9.53
2023-03-26T11:11:53.359Z,9.20
2023-03-26T11:14:34.848Z,8.57
2023-03-26T11:17:39.612Z,8.93
2023-03-26T11:20:13.240Z,9.77
2023-03-26T11:22:54.162Z,8.52
2023-03-26T11:25:29.809Z,8.48
2023-03-26T11:28:29.820Z,7.85
2023-03-26T11:31:08.567Z,8.50
2023-03-26T11:33:45.351Z,8.77
2023-03-26T11:36:43.300Z,8.18
2023-03-26T11:39:13.719Z,8.40
2023-03-26T11:41:40.056Z,8.05
2023-03-26T11:44:22.303Z,9.70
2023-03-26T11:46:52.329Z,8.98
2023-03-26T11:49:21.987Z,8.45
2023-03-26T11:51:48.861Z,7.85
2023-03-26T11:54:15.288Z,8.07
2023-03-26T11:57:05.355Z,8.60
2023-03-26T11:59:55.790Z,6.95
2023-03-26T12:02:28.054Z,6.15
2023-03-26T12:05:08.080Z,6.05
2023-03-26T12:07:35.383Z,6.07
2023-03-26T12:10:17.864Z,6.65
2023-03-26T12:12:47.498Z,6.35
2023-03-26T12:15:16.026Z,6.90
2023-03-26T12:17:42.689Z,6.53
2023-03-26T12:20:24.541Z,7.63
2023-03-26T12:23:33.530Z,7.28
2023-03-26T12:26:11.790Z,11.85
2023-03-26T12:28:44.820Z,6.15
2023-03-26T12:31:12.940Z,5.70
2023-03-26T12:33:39.456Z,5.75
2023-03-26T12:36:21.012Z,5.68
2023-03-26T12:40:06.536Z,5.47
2023-03-26T12:42:36.727Z,5.18
2023-03-26T12:44:48.226Z,4.72
2023-03-26T12:48:01.409Z,5.47
2023-03-26T12:50:14.326Z,5.43
2023-03-26T12:52:56.064Z,5.60
2023-03-26T12:55:52.969Z,5.85
2023-03-26T12:58:33.972Z,6.10
2023-03-26T13:01:14.046Z,6.07
2023-03-26T13:04:10.182Z,6.10
2023-03-26T13:06:59.072Z,6.13
2023-03-26T13:10:02.161Z,6.40
2023-03-26T13:12:52.700Z,5.97
2023-03-26T13:15:30.050Z,6.10
2023-03-26T13:18:24.834Z,10.93
2023-03-26T13:21:00.866Z,6.53
2023-03-26T13:23:43.778Z,6.30
2023-03-26T13:26:17.884Z,5.22
2023-03-26T13:29:14.718Z,4.55
2023-03-26T13:32:18.173Z,4.00
2023-03-26T13:35:10.588Z,4.70
2023-03-26T13:37:55.269Z,5.05
2023-03-26T13:40:42.311Z,4.30
2023-03-26T13:43:17.882Z,5.22
2023-03-26T13:45:53.397Z,4.97
2023-03-26T13:48:26.472Z,4.68
2023-03-26T13:51:17.239Z,4.18
2023-03-26T13:53:52.105Z,4.25
2023-03-26T13:58:53.070Z,4.32
2023-03-26T14:01:22.477Z,4.05
2023-03-26T14:03:55.862Z,4.38
2023-03-26T14:07:15.763Z,4.30
2023-03-26T14:10:08.463Z,13.23
2023-03-26T14:12:43.273Z,8.70
2023-03-26T14:15:24.221Z,10.48
2023-03-26T14:18:03.140Z,12.98
2023-03-26T14:21:04.838Z,10.10
2023-03-26T14:23:43.219Z,8.15
2023-03-26T14:26:19.470Z,9.63
2023-03-26T14:28:54.923Z,9.05
2023-03-26T14:31:47.775Z,8.70
2023-03-26T14:34:45.653Z,15.20
2023-03-26T14:37:42.616Z,13.48
2023-03-26T14:40:30.802Z,6.85
2023-03-26T14:43:09.373Z,23.90
2023-03-26T14:46:03.141Z,13.40
2023-03-26T14:48:53.918Z,6.80
2023-03-26T14:52:01.629Z,8.27
2023-03-26T14:54:32.088Z,8.68
2023-03-26T14:57:29.330Z,8.20
2023-03-26T15:00:20.063Z,5.65
2023-03-26T15:03:24.864Z,6.15
2023-03-26T15:06:11.653Z,5.00
2023-03-26T15:09:10.458Z,5.90
2023-03-26T15:12:14.510Z,4.85
2023-03-26T15:14:56.522Z,4.88
2023-03-26T15:17:31.936Z,4.50
2023-03-26T15:20:34.925Z,4.95
2023-03-26T15:23:25.826Z,4.68
2023-03-26T15:26:27.957Z,4.70
2023-03-26T15:29:21.716Z,5.10
2023-03-26T15:32:19.692Z,4.28
2023-03-26T15:35:16.564Z,4.10
2023-03-26T15:37:57.170Z,4.63
2023-03-26T15:40:47.617Z,5.15
2023-03-26T15:43:16.586Z,8.05
2023-03-26T15:45:49.180Z,4.78
2023-03-26T15:48:34.231Z,3.30
2023-03-26T15:51:31.886Z,4.10
2023-03-26T15:54:21.907Z,2.90
2023-03-26T15:56:54.302Z,3.78
2023-03-26T15:59:20.558Z,3.28
2023-03-26T16:02:00.393Z,3.17
2023-03-26T16:04:51.800Z,4.43
2023-03-26T16:08:09.745Z,3.88
2023-03-26T16:10:55.762Z,3.78
2023-03-26T16:13:22.185Z,3.92
2023-03-26T16:16:20.055Z,4.63
2023-03-26T16:19:18.524Z,4.28
2023-03-26T16:22:07.344Z,4.40
2023-03-26T16:24:36.522Z,4.20
2023-03-26T16:27:15.009Z,4.50
2023-03-26T16:30:00.018Z,4.20
2023-03-26T16:32:34.597Z,3.63
2023-03-26T16:35:34.816Z,3.92
2023-03-26T16:38:13.585Z,3.97
2023-03-26T16:40:58.314Z,5.60
2023-03-26T16:43:38.343Z,3.67
2023-03-26T16:46:42.445Z,6.65
2023-03-26T16:50:08.469Z,4.40
2023-03-26T16:52:49.992Z,3.67
2023-03-26T16:55:27.932Z,4.32
2023-03-26T16:58:29.292Z,3.80
2023-03-26T17:01:11.852Z,2.72
2023-03-26T17:03:50.983Z,4.15
2023-03-26T17:06:17.432Z,4.40
2023-03-26T17:08:58.371Z,3.40
2023-03-26T17:11:56.562Z,3.40
2023-03-26T17:14:44.346Z,3.72
2023-03-26T17:17:25.678Z,5.30
2023-03-26T17:20:07.385Z,4.63
2023-03-26T17:22:43.603Z,4.68
2023-03-26T17:25:34.544Z,4.35
2023-03-26T17:28:28.424Z,3.70
2023-03-26T17:31:18.337Z,4.10
2023-03-26T17:33:45.088Z,4.55
2023-03-26T17:36:11.465Z,3.55
2023-03-26T17:38:37.760Z,4.25
2023-03-26T17:41:05.461Z,3.92
2023-03-26T17:43:48.356Z,3.83
2023-03-26T17:46:32.211Z,3.75
2023-03-26T17:49:07.519Z,3.92
2023-03-26T17:51:57.938Z,4.53
2023-03-26T17:54:30.865Z,3.50
2023-03-26T17:57:03.584Z,4.15
2023-03-26T17:59:32.404Z,3.97
2023-03-26T18:02:02.684Z,3.92
2023-03-26T18:04:42.130Z,3.97
2023-03-26T18:07:46.078Z,5.25
2023-03-26T18:10:43.545Z,4.32
2023-03-26T18:13:26.881Z,2.70
2023-03-26T18:16:16.467Z,3.33
2023-03-26T18:18:50.778Z,3.42
2023-03-26T18:21:27.813Z,4.07
2023-03-26T18:23:54.201Z,15.00
2023-03-26T18:26:36.168Z,6.93
2023-03-26T18:29:16.338Z,2.85
2023-03-26T18:31:43.446Z,3.40
2023-03-26T18:34:17.904Z,3.63
2023-03-26T18:36:57.433Z,4.30
2023-03-26T18:39:23.880Z,3.53
2023-03-26T18:41:50.335Z,2.67
2023-03-26T18:44:18.571Z,3.28
2023-03-26T18:46:45.708Z,3.55
2023-03-26T18:49:14.595Z,3.75
2023-03-26T18:51:54.162Z,3.20
2023-03-26T18:54:23.803Z,2.80
2023-03-26T18:56:50.329Z,2.85
2023-03-26T18:59:34.260Z,3.10
2023-03-26T19:02:10.119Z,3.10
2023-03-26T19:04:36.723Z,3.50
2023-03-26T19:07:08.624Z,3.60
2023-03-26T19:09:35.280Z,2.92
2023-03-26T19:12:07.989Z,2.97
2023-03-26T19:14:50.182Z,2.92
2023-03-26T19:17:16.658Z,2.67
2023-03-26T19:19:43.143Z,3.00
2023-03-26T19:22:11.152Z,3.17
2023-03-26T19:24:38.158Z,2.83
2023-03-26T19:27:04.737Z,3.33
2023-03-26T19:29:35.740Z,3.00
2023-03-26T19:32:35.637Z,2.65
2023-03-26T19:35:01.995Z,2.63
2023-03-26T19:37:29.275Z,2.72
2023-03-26T19:40:02.759Z,2.42
2023-03-26T19:42:44.031Z,3.30
2023-03-26T19:45:17.958Z,2.65
2023-03-26T19:47:52.166Z,2.28
2023-03-26T19:50:27.439Z,2.50
2023-03-26T19:53:16.853Z,2.60
2023-03-26T19:55:59.310Z,3.40
2023-03-26T19:58:27.175Z,2.53
2023-03-26T20:00:53.695Z,3.58
2023-03-26T20:03:40.389Z,2.72
2023-03-26T20:06:10.162Z,3.15
2023-03-26T20:08:36.464Z,4.05
2023-03-26T20:11:02.818Z,2.33
2023-03-26T20:13:29.141Z,2.97
2023-03-26T20:16:06.596Z,2.53
2023-03-26T20:18:34.435Z,2.58
2023-03-26T20:21:00.962Z,2.60
2023-03-26T20:23:27.295Z,2.97
2023-03-26T20:25:53.717Z,2.33
2023-03-26T20:28:20.526Z,2.60
2023-03-26T20:30:48.536Z,2.45
2023-03-26T20:33:23.970Z,2.50
2023-03-26T20:35:50.296Z,2.20
2023-03-26T20:38:18.205Z,2.95
2023-03-26T20:40:44.701Z,2.88
2023-03-26T20:43:13.151Z,2.47
2023-03-26T20:45:40.093Z,2.35
2023-03-26T20:48:06.718Z,3.08
2023-03-26T20:50:35.811Z,2.50
2023-03-26T20:53:02.389Z,3.03
2023-03-26T20:55:28.902Z,2.67
2023-03-26T20:57:55.212Z,2.53
2023-03-26T21:00:21.722Z,2.35
2023-03-26T21:02:49.655Z,2.55
2023-03-26T21:05:16.121Z,3.13
2023-03-26T21:07:42.772Z,2.75
2023-03-26T21:10:13.727Z,2.75
2023-03-26T21:12:51.252Z,2.50
2023-03-26T21:15:23.540Z,2.95
2023-03-26T21:17:51.243Z,2.15
2023-03-26T21:20:18.957Z,2.10
2023-03-26T21:23:10.065Z,2.80
2023-03-26T21:25:48.229Z,2.67
2023-03-26T21:28:41.913Z,2.50
2023-03-26T21:31:14.632Z,2.65
2023-03-26T21:33:41.026Z,2.85
2023-03-26T21:36:08.050Z,2.83
2023-03-26T21:38:34.691Z,2.42
2023-03-26T21:41:01.713Z,2.70
2023-03-26T21:43:28.175Z,2.35
2023-03-26T21:45:55.184Z,2.70
2023-03-26T21:48:21.852Z,2.20
2023-03-26T21:50:48.405Z,2.47
2023-03-26T21:53:16.010Z,2.55
2023-03-26T21:56:16.510Z,2.78
2023-03-26T21:59:09.969Z,2.47
2023-03-26T22:01:55.105Z,2.50
2023-03-26T22:06:56.692Z,2.88
2023-03-26T22:09:33.953Z,3.42
2023-03-26T22:12:02.541Z,2.97
2023-03-26T22:14:28.910Z,2.67
2023-03-26T22:16:55.413Z,2.78
2023-03-26T22:19:21.732Z,3.15
2023-03-26T22:21:48.178Z,3.00
2023-03-26T22:24:14.473Z,2.83
2023-03-26T22:26:40.905Z,3.28
2023-03-26T22:29:07.290Z,3.22
2023-03-26T22:31:33.691Z,3.35
2023-03-26T22:34:00.116Z,2.15
2023-03-26T22:36:26.464Z,2.65
2023-03-26T22:38:53.448Z,2.75
2023-03-26T22:41:19.805Z,3.00
2023-03-26T22:43:46.117Z,2.60
2023-03-26T22:46:12.447Z,2.67
2023-03-26T22:48:38.749Z,2.85
2023-03-26T22:51:07.401Z,2.67
2023-03-26T22:53:34.752Z,3.08
2023-03-26T22:56:01.384Z,2.85
2023-03-26T22:58:28.176Z,2.72
2023-03-26T23:01:09.248Z,2.80
2023-03-26T23:03:36.301Z,3.08
2023-03-26T23:06:06.726Z,2.70
2023-03-26T23:08:34.843Z,2.70
2023-03-26T23:11:01.648Z,2.58
2023-03-26T23:13:28.005Z,2.30
2023-03-26T23:15:55.757Z,2.42
2023-03-26T23:18:23.583Z,2.78
2023-03-26T23:20:57.395Z,2.90
2023-03-26T23:23:26.710Z,2.50
2023-03-26T23:25:56.992Z,2.42
2023-03-26T23:28:23.323Z,2.78
2023-03-26T23:30:51.401Z,2.50
2023-03-26T23:33:21.786Z,2.13
2023-03-26T23:35:49.826Z,2.47
2023-03-26T23:38:16.679Z,2.40
2023-03-26T23:40:44.428Z,2.42
2023-03-26T23:43:25.081Z,2.60
2023-03-26T23:45:52.161Z,3.10
2023-03-26T23:48:21.144Z,2.17
2023-03-26T23:50:48.724Z,2.58
2023-03-26T23:53:15.151Z,2.80
2023-03-26T23:55:41.464Z,2.92
2023-03-26T23:58:07.791Z,2.50
